Time;durP1;ratioP1;P1;durP2;ratioP2;P2;SDS_P1;SDS_P2;PMS_P1;PMS_P2;Temp;Humidity;BMP_temperature;BMP_pressure;BME280_temperature;BME280_humidity;BME280_pressure;Samples;Min_cycle;Max_cycle;Signal;HPM_P1;HPM_P2
2024/03/17 00:00:30;;;;;;;;;;;17.30;57.80;;;;;;5097208;28;20032;-71
2024/03/17 00:02:55;;;;;;;;;;;17.50;57.90;;;;;;5097027;28;19972;-71
2024/03/17 00:05:21;;;;;;;;;;;17.40;58.30;;;;;;5096631;28;20416;-71
2024/03/17 00:07:47;;;;;;;;;;;17.40;58.20;;;;;;5097047;28;19912;-71
2024/03/17 00:10:12;;;;;;;;;;;17.30;58.40;;;;;;5096633;28;19960;-71
2024/03/17 00:12:38;;;;;;;;;;;17.30;58.10;;;;;;5096804;28;20007;-70
2024/03/17 00:15:04;;;;;;;;;;;17.30;58.30;;;;;;5096256;28;19923;-71
2024/03/17 00:17:30;;;;;;;;;;;17.40;56.90;;;;;;5096519;28;20285;-71
2024/03/17 00:19:56;;;;;;;;;;;17.40;58.30;;;;;;5096286;28;19919;-71
2024/03/17 00:22:22;;;;;;;;;;;17.30;58.20;;;;;;5096680;28;19915;-71
2024/03/17 00:24:47;;;;;;;;;;;17.30;58.60;;;;;;5096249;28;19919;-71
2024/03/17 00:27:13;;;;;;;;;;;17.40;58.40;;;;;;5096311;28;19911;-71
2024/03/17 00:29:39;;;;;;;;;;;17.30;58.50;;;;;;5096212;28;19958;-71
2024/03/17 00:32:06;;;;;;;;;;;17.30;58.40;;;;;;5096142;28;20048;-71
2024/03/17 00:34:31;;;;;;;;;;;17.30;57.60;;;;;;5096192;28;19920;-71
2024/03/17 00:36:57;;;;;;;;;;;17.30;58.40;;;;;;5095957;28;20010;-71
2024/03/17 00:39:22;;;;;;;;;;;17.30;58.60;;;;;;5096011;28;20014;-71
2024/03/17 00:41:48;;;;;;;;;;;17.30;58.30;;;;;;5095832;28;19946;-71
2024/03/17 00:44:14;;;;;;;;;;;17.30;58.30;;;;;;5096323;28;20441;-71
2024/03/17 00:46:42;;;;;;;;;;;17.30;58.60;;;;;;5095825;28;20015;-71
2024/03/17 00:49:08;;;;;;;;;;;17.30;58.50;;;;;;5096978;28;19912;-71
2024/03/17 00:51:34;;;;;;;;;;;17.30;58.30;;;;;;5095730;28;19965;-71
2024/03/17 00:53:59;;;;;;;;;;;17.30;58.40;;;;;;5095633;28;20289;-71
2024/03/17 00:56:25;;;;;;;;;;;17.30;58.30;;;;;;5095583;28;20334;-71
2024/03/17 00:58:52;;;;;;;;;;;17.30;58.40;;;;;;5095597;28;19912;-71
2024/03/17 01:01:19;;;;;;;;;;;17.40;58.40;;;;;;5095966;28;20053;-71
2024/03/17 01:03:45;;;;;;;;;;;17.30;58.90;;;;;;5095666;28;19924;-70
2024/03/17 01:06:10;;;;;;;;;;;17.00;58.20;;;;;;5095411;28;19919;-70
2024/03/17 01:08:36;;;;;;;;;;;17.30;58.40;;;;;;5095433;28;19993;-71
2024/03/17 01:11:02;;;;;;;;;;;17.40;58.30;;;;;;5095309;28;19969;-71
2024/03/17 01:13:28;;;;;;;;;;;17.40;58.50;;;;;;5095678;28;19924;-71
2024/03/17 01:15:54;;;;;;;;;;;17.20;58.20;;;;;;5095297;28;19935;-70
2024/03/17 01:18:19;;;;;;;;;;;17.30;58.10;;;;;;5095771;28;19934;-71
2024/03/17 01:20:45;;;;;;;;;;;17.30;58.50;;;;;;5095125;28;20027;-71
2024/03/17 01:23:11;;;;;;;;;;;17.30;58.20;;;;;;5095251;28;19911;-71
2024/03/17 01:25:37;;;;;;;;;;;17.30;58.50;;;;;;5094442;28;20011;-71
2024/03/17 01:28:03;;;;;;;;;;;17.40;58.30;;;;;;5095073;28;19919;-70
2024/03/17 01:30:29;;;;;;;;;;;17.30;58.10;;;;;;5095129;28;19912;-71
2024/03/17 01:32:55;;;;;;;;;;;17.40;57.60;;;;;;5095271;28;19911;-70
2024/03/17 01:35:20;;;;;;;;;;;17.30;58.20;;;;;;5094874;28;20271;-71
2024/03/17 01:37:46;;;;;;;;;;;17.30;58.30;;;;;;5094911;28;19911;-70
2024/03/17 01:40:11;;;;;;;;;;;17.30;58.60;;;;;;5112983;28;20387;-70
2024/03/17 01:42:40;;;;;;;;;;;17.30;58.30;;;;;;5094744;28;20443;-71
2024/03/17 01:45:15;;;;;;;;;;;17.30;55.20;;;;;;5094591;28;19919;-71
2024/03/17 01:47:41;;;;;;;;;;;17.10;55.10;;;;;;5113467;28;19954;-71
2024/03/17 01:50:08;;;;;;;;;;;17.20;58.70;;;;;;5094913;28;19935;-71
2024/03/17 01:52:34;;;;;;;;;;;17.30;57.60;;;;;;5095001;28;19947;-71
2024/03/17 01:55:00;;;;;;;;;;;17.30;58.90;;;;;;5094587;28;19961;-71
2024/03/17 01:57:26;;;;;;;;;;;17.20;58.50;;;;;;5094691;28;19923;-70
2024/03/17 01:59:51;;;;;;;;;;;17.70;59.10;;;;;;5112903;28;19920;-71
2024/03/17 02:02:17;;;;;;;;;;;17.40;58.40;;;;;;5094337;28;19931;-71
2024/03/17 02:04:42;;;;;;;;;;;17.20;59.00;;;;;;5094484;28;19911;-71
2024/03/17 02:07:10;;;;;;;;;;;17.30;58.80;;;;;;5094438;28;19911;-71
2024/03/17 02:09:36;;;;;;;;;;;17.30;59.20;;;;;;5094435;28;19915;-71
2024/03/17 02:12:02;;;;;;;;;;;17.30;58.70;;;;;;5112558;28;19977;-71
2024/03/17 02:14:28;;;;;;;;;;;17.40;58.60;;;;;;5095171;28;19944;-71
2024/03/17 02:16:53;;;;;;;;;;;17.20;58.90;;;;;;5094245;28;20328;-71
2024/03/17 02:19:19;;;;;;;;;;;17.30;59.50;;;;;;5112429;28;20393;-70
2024/03/17 02:21:44;;;;;;;;;;;17.30;58.80;;;;;;5094235;28;19955;-71
2024/03/17 02:24:10;;;;;;;;;;;17.30;59.10;;;;;;5094127;28;20404;-71
2024/03/17 02:26:36;;;;;;;;;;;17.30;58.80;;;;;;5094164;28;20427;-70
2024/03/17 02:29:02;;;;;;;;;;;17.30;58.90;;;;;;5094619;28;19919;-70
2024/03/17 02:31:27;;;;;;;;;;;17.30;58.80;;;;;;5094016;28;20010;-70
2024/03/17 02:33:53;;;;;;;;;;;17.30;59.10;;;;;;5094062;28;20068;-70
2024/03/17 02:36:18;;;;;;;;;;;17.30;58.90;;;;;;5094006;28;19918;-71
2024/03/17 02:41:28;;;;;;;;;;;17.20;56.60;;;;;;5101466;28;19919;-71
2024/03/17 02:43:54;;;;;;;;;;;17.20;58.80;;;;;;5098994;28;19916;-71
2024/03/17 02:46:19;;;;;;;;;;;17.30;59.00;;;;;;5098137;28;20089;-71
2024/03/17 02:48:49;;;;;;;;;;;17.30;58.80;;;;;;5098222;28;19924;-71
2024/03/17 02:51:15;;;;;;;;;;;19.20;59.90;;;;;;5098458;28;19912;-71
2024/03/17 02:53:47;;;;;;;;;;;17.20;58.90;;;;;;5116331;28;19927;-71
2024/03/17 02:56:16;;;;;;;;;;;17.30;55.80;;;;;;5098576;28;19912;-72
2024/03/17 02:58:42;;;;;;;;;;;17.20;59.10;;;;;;5098536;28;19924;-71
2024/03/17 03:01:09;;;;;;;;;;;17.30;58.40;;;;;;5097912;28;19916;-71
2024/03/17 03:03:35;;;;;;;;;;;17.20;59.10;;;;;;5081168;28;20358;-71
2024/03/17 03:06:03;;;;;;;;;;;17.20;59.20;;;;;;5097905;28;20006;-71
2024/03/17 03:08:29;;;;;;;;;;;17.20;58.80;;;;;;5116120;28;19920;-71
2024/03/17 03:10:55;;;;;;;;;;;17.50;59.30;;;;;;5097827;28;19911;-71
2024/03/17 03:13:21;;;;;;;;;;;17.20;58.90;;;;;;5098259;28;20297;-71
2024/03/17 03:15:47;;;;;;;;;;;17.20;58.80;;;;;;5097712;28;19922;-71
2024/03/17 03:18:14;;;;;;;;;;;17.20;58.90;;;;;;5098083;28;20012;-71
2024/03/17 03:20:40;;;;;;;;;;;17.20;59.10;;;;;;5115880;28;20104;-71
2024/03/17 03:23:06;;;;;;;;;;;17.20;58.90;;;;;;5097608;28;19919;-70
2024/03/17 03:25:32;;;;;;;;;;;17.20;58.40;;;;;;5115692;28;19924;-71
2024/03/17 03:27:59;;;;;;;;;;;17.20;58.80;;;;;;5097685;28;20031;-70
2024/03/17 03:30:25;;;;;;;;;;;17.20;58.60;;;;;;5097536;28;20334;-71
2024/03/17 03:32:51;;;;;;;;;;;17.20;59.10;;;;;;5097667;28;20430;-71
2024/03/17 03:35:17;;;;;;;;;;;17.20;58.90;;;;;;5097600;28;20041;-70
2024/03/17 03:37:43;;;;;;;;;;;17.20;59.10;;;;;;5115455;28;19920;-70
2024/03/17 03:40:18;;;;;;;;;;;17.10;58.90;;;;;;5097763;28;19923;-71
2024/03/17 03:42:45;;;;;;;;;;;17.10;58.40;;;;;;5098873;28;20341;-70
2024/03/17 03:45:14;;;;;;;;;;;17.20;58.90;;;;;;5097411;28;20227;-71
2024/03/17 03:47:43;;;;;;;;;;;17.20;57.90;;;;;;5097276;28;19915;-71
2024/03/17 03:50:15;;;;;;;;;;;17.20;55.60;;;;;;5097205;28;19920;-71
2024/03/17 03:52:41;;;;;;;;;;;17.10;58.90;;;;;;5097107;28;19912;-71
2024/03/17 03:55:10;;;;;;;;;;;17.70;59.10;;;;;;5097221;28;19945;-70
2024/03/17 03:57:36;;;;;;;;;;;17.10;58.60;;;;;;5097189;28;20374;-71
2024/03/17 04:00:12;;;;;;;;;;;17.10;58.80;;;;;;5115391;28;19923;-71
2024/03/17 04:02:38;;;;;;;;;;;17.20;58.40;;;;;;5098177;28;19924;-70
2024/03/17 04:05:05;;;;;;;;;;;17.20;59.20;;;;;;5096815;28;19943;-71
2024/03/17 04:07:31;;;;;;;;;;;17.20;58.70;;;;;;5097131;28;20337;-70
2024/03/17 04:09:57;;;;;;;;;;;17.10;58.90;;;;;;5097529;28;19912;-71
2024/03/17 04:12:24;;;;;;;;;;;17.10;58.70;;;;;;5096968;28;19911;-70
2024/03/17 04:14:53;;;;;;;;;;;17.10;59.00;;;;;;5096561;28;20353;-70
2024/03/17 04:17:21;;;;;;;;;;;17.10;59.00;;;;;;5097376;28;19969;-71
2024/03/17 04:19:48;;;;;;;;;;;17.10;59.30;;;;;;5096828;28;20389;-71
2024/03/17 04:22:15;;;;;;;;;;;17.10;58.70;;;;;;5096655;28;20362;-71
2024/03/17 04:24:41;;;;;;;;;;;17.10;58.90;;;;;;5096752;28;19934;-70
2024/03/17 04:27:07;;;;;;;;;;;17.10;58.70;;;;;;5096713;28;20374;-70
2024/03/17 04:29:33;;;;;;;;;;;17.10;59.00;;;;;;5096696;28;19912;-70
2024/03/17 04:32:00;;;;;;;;;;;17.00;58.90;;;;;;5096258;28;19918;-70
2024/03/17 04:34:29;;;;;;;;;;;17.00;58.70;;;;;;5096474;28;19919;-70
2024/03/17 04:36:55;;;;;;;;;;;17.10;58.50;;;;;;5097012;28;19919;-71
2024/03/17 04:39:21;;;;;;;;;;;17.10;58.90;;;;;;5096540;28;19912;-70
2024/03/17 04:41:47;;;;;;;;;;;17.10;58.80;;;;;;5096079;28;19912;-71
2024/03/17 04:44:14;;;;;;;;;;;17.00;58.90;;;;;;5096175;28;19920;-70
2024/03/17 04:46:40;;;;;;;;;;;17.60;59.00;;;;;;5114232;28;19920;-70
2024/03/17 04:49:06;;;;;;;;;;;17.00;59.00;;;;;;5114143;28;19962;-70
2024/03/17 04:51:34;;;;;;;;;;;17.00;59.00;;;;;;5095828;28;19947;-70
2024/03/17 04:54:03;;;;;;;;;;;17.00;56.60;;;;;;5096412;28;19920;-70
2024/03/17 04:56:29;;;;;;;;;;;17.00;59.30;;;;;;5096394;28;19918;-70
2024/03/17 04:58:55;;;;;;;;;;;17.10;59.50;;;;;;5113916;28;19963;-70
2024/03/17 05:01:21;;;;;;;;;;;17.10;58.70;;;;;;5113135;28;19920;-70
2024/03/17 05:03:50;;;;;;;;;;;17.00;59.40;;;;;;5095583;28;20415;-70
2024/03/17 05:06:16;;;;;;;;;;;17.00;59.40;;;;;;5096342;28;19912;-70
2024/03/17 05:08:43;;;;;;;;;;;17.20;59.30;;;;;;5095560;28;20366;-70
2024/03/17 05:11:09;;;;;;;;;;;17.00;59.30;;;;;;5095544;28;20374;-71
2024/03/17 05:13:36;;;;;;;;;;;17.00;59.00;;;;;;5113612;28;20374;-70
2024/03/17 05:16:03;;;;;;;;;;;17.00;59.70;;;;;;5095601;28;19998;-70
2024/03/17 05:18:32;;;;;;;;;;;17.00;59.30;;;;;;5096006;28;19920;-70
2024/03/17 05:21:03;;;;;;;;;;;17.00;59.50;;;;;;5095641;28;20000;-70
2024/03/17 05:23:30;;;;;;;;;;;17.00;55.90;;;;;;5095677;28;19923;-70
2024/03/17 05:25:57;;;;;;;;;;;18.10;60.10;;;;;;5113558;28;19919;-69
2024/03/17 05:28:27;;;;;;;;;;;17.00;59.40;;;;;;5095193;28;19912;-69
2024/03/17 05:30:53;;;;;;;;;;;17.00;59.50;;;;;;5113323;28;20000;-69
2024/03/17 05:33:21;;;;;;;;;;;16.90;59.10;;;;;;5094833;28;19961;-69
2024/03/17 05:35:52;;;;;;;;;;;17.00;59.60;;;;;;5113613;28;19920;-69
2024/03/17 05:38:27;;;;;;;;;;;16.90;55.80;;;;;;5113126;28;19976;-69
2024/03/17 05:41:13;;;;;;;;;;;17.00;55.90;;;;;;5094664;28;19916;-69
2024/03/17 05:43:38;;;;;;;;;;;17.00;59.80;;;;;;5112434;28;19908;-69
2024/03/17 05:46:06;;;;;;;;;;;16.80;59.20;;;;;;5094620;28;19919;-69
2024/03/17 05:48:40;;;;;;;;;;;16.90;59.20;;;;;;5112959;28;19908;-69
2024/03/17 05:51:06;;;;;;;;;;;16.90;59.30;;;;;;5112806;28;20331;-69
2024/03/17 05:53:32;;;;;;;;;;;16.90;59.50;;;;;;5112615;28;19982;-69
2024/03/17 05:56:01;;;;;;;;;;;16.90;59.40;;;;;;5094208;28;19912;-69
2024/03/17 05:58:27;;;;;;;;;;;16.90;56.30;;;;;;5094232;28;19919;-69
2024/03/17 06:00:53;;;;;;;;;;;16.90;59.20;;;;;;5094246;28;19912;-69
2024/03/17 06:03:18;;;;;;;;;;;17.00;59.00;;;;;;5094544;28;19946;-69
2024/03/17 06:05:45;;;;;;;;;;;16.90;59.30;;;;;;5094169;28;20006;-69
2024/03/17 06:08:11;;;;;;;;;;;17.00;59.40;;;;;;5094404;28;20400;-69
2024/03/17 06:10:37;;;;;;;;;;;16.90;59.20;;;;;;5094127;28;19912;-69
2024/03/17 06:13:03;;;;;;;;;;;17.00;59.30;;;;;;5093938;28;19995;-69
2024/03/17 06:15:32;;;;;;;;;;;16.90;58.70;;;;;;5094048;28;19923;-69
2024/03/17 06:17:57;;;;;;;;;;;15.70;55.20;;;;;;5094114;28;20045;-69
2024/03/17 06:20:24;;;;;;;;;;;16.90;59.40;;;;;;5093943;28;20020;-70
2024/03/17 06:22:50;;;;;;;;;;;16.80;59.10;;;;;;5094317;28;19919;-69
2024/03/17 06:25:16;;;;;;;;;;;16.90;59.20;;;;;;5112375;28;19919;-69
2024/03/17 06:27:42;;;;;;;;;;;16.90;58.60;;;;;;5094035;28;20289;-69
2024/03/17 06:30:16;;;;;;;;;;;16.80;58.90;;;;;;5094314;28;19976;-69
2024/03/17 06:32:44;;;;;;;;;;;16.90;58.90;;;;;;5112800;28;19912;-69
2024/03/17 06:35:11;;;;;;;;;;;16.90;59.50;;;;;;5094391;28;19942;-69
2024/03/17 06:37:36;;;;;;;;;;;16.90;59.60;;;;;;5112176;28;20409;-69
2024/03/17 06:40:03;;;;;;;;;;;16.90;59.50;;;;;;5093823;28;19923;-69
2024/03/17 06:42:29;;;;;;;;;;;16.90;59.40;;;;;;5094316;28;20287;-69
2024/03/17 06:44:55;;;;;;;;;;;16.90;59.30;;;;;;5093742;28;20043;-69
2024/03/17 06:47:20;;;;;;;;;;;16.90;59.60;;;;;;5093826;28;19962;-69
2024/03/17 06:49:46;;;;;;;;;;;16.90;59.20;;;;;;5093705;28;19912;-69
2024/03/17 06:52:11;;;;;;;;;;;16.90;59.00;;;;;;5093749;28;19916;-69
2024/03/17 06:54:37;;;;;;;;;;;16.90;59.40;;;;;;5093633;28;20061;-69
2024/03/17 06:57:03;;;;;;;;;;;16.80;59.10;;;;;;5093683;28;20002;-69
2024/03/17 06:59:28;;;;;;;;;;;17.00;59.10;;;;;;5094131;28;19912;-69
2024/03/17 07:01:54;;;;;;;;;;;17.00;58.80;;;;;;5090218;28;20278;-70
2024/03/17 07:04:20;;;;;;;;;;;16.90;59.20;;;;;;5090490;28;19958;-70
2024/03/17 07:06:46;;;;;;;;;;;16.80;59.10;;;;;;5090596;28;19912;-70
2024/03/17 07:09:12;;;;;;;;;;;16.90;59.30;;;;;;5090230;28;20349;-70
2024/03/17 07:11:37;;;;;;;;;;;16.80;59.20;;;;;;5091651;28;19950;-70
2024/03/17 07:14:04;;;;;;;;;;;16.80;59.40;;;;;;5090312;28;19920;-70
2024/03/17 07:16:31;;;;;;;;;;;16.80;59.20;;;;;;5090592;28;20328;-70
2024/03/17 07:18:57;;;;;;;;;;;17.00;59.30;;;;;;5090304;28;19913;-70
2024/03/17 07:21:23;;;;;;;;;;;16.90;59.20;;;;;;5090195;28;19918;-70
2024/03/17 07:23:48;;;;;;;;;;;16.90;59.50;;;;;;5091870;28;20339;-70
2024/03/17 07:26:14;;;;;;;;;;;16.90;59.40;;;;;;5093960;28;19919;-70
2024/03/17 07:28:40;;;;;;;;;;;16.90;59.20;;;;;;5094762;28;19939;-70
2024/03/17 07:31:08;;;;;;;;;;;16.90;59.50;;;;;;5094158;28;20006;-70
2024/03/17 07:33:33;;;;;;;;;;;16.90;59.30;;;;;;5093760;28;19926;-70
2024/03/17 07:36:02;;;;;;;;;;;16.30;58.90;;;;;;5095182;28;19920;-70
2024/03/17 07:38:29;;;;;;;;;;;16.90;57.00;;;;;;5093756;28;19916;-70
2024/03/17 07:40:57;;;;;;;;;;;16.90;59.80;;;;;;5093810;28;20293;-70
2024/03/17 07:43:23;;;;;;;;;;;16.90;59.00;;;;;;5093872;28;19963;-70
2024/03/17 07:45:56;;;;;;;;;;;16.90;59.60;;;;;;5093469;28;19985;-69
2024/03/17 07:48:23;;;;;;;;;;;16.90;59.40;;;;;;5093713;28;19948;-70
2024/03/17 07:50:58;;;;;;;;;;;16.90;59.40;;;;;;5094804;28;19960;-69
2024/03/17 07:53:24;;;;;;;;;;;16.90;55.80;;;;;;5093364;28;19920;-69
2024/03/17 07:56:10;;;;;;;;;;;16.90;59.50;;;;;;5093358;28;20330;-69
2024/03/17 07:58:37;;;;;;;;;;;17.00;59.10;;;;;;5094772;28;19930;-69
2024/03/17 08:01:04;;;;;;;;;;;16.90;59.70;;;;;;5094652;28;20436;-69
2024/03/17 08:03:31;;;;;;;;;;;17.00;59.30;;;;;;5094532;28;19935;-70
2024/03/17 08:05:57;;;;;;;;;;;16.90;59.50;;;;;;5095583;28;19912;-72
2024/03/17 08:08:23;;;;;;;;;;;16.90;59.70;;;;;;5094493;28;19924;-69
2024/03/17 08:10:48;;;;;;;;;;;17.00;59.50;;;;;;5094544;28;19920;-69
2024/03/17 08:13:18;;;;;;;;;;;16.90;59.60;;;;;;5093022;28;19919;-69
2024/03/17 08:15:44;;;;;;;;;;;16.90;59.80;;;;;;5093066;28;19912;-68
2024/03/17 08:18:10;;;;;;;;;;;16.90;59.90;;;;;;5092963;28;19913;-69
2024/03/17 08:20:46;;;;;;;;;;;16.90;59.90;;;;;;5092968;28;19912;-69
2024/03/17 08:23:12;;;;;;;;;;;16.90;56.30;;;;;;5094364;28;19916;-69
2024/03/17 08:25:38;;;;;;;;;;;17.00;59.40;;;;;;5093351;28;20322;-69
2024/03/17 08:28:04;;;;;;;;;;;17.10;60.30;;;;;;5092854;28;20025;-70
2024/03/17 08:30:33;;;;;;;;;;;16.90;59.30;;;;;;5092945;28;19920;-69
2024/03/17 08:32:58;;;;;;;;;;;16.90;60.10;;;;;;5092803;28;19919;-69
2024/03/17 08:35:24;;;;;;;;;;;16.90;60.20;;;;;;5092720;28;20309;-70
2024/03/17 08:37:51;;;;;;;;;;;16.90;60.50;;;;;;5092860;28;20006;-70
2024/03/17 08:40:17;;;;;;;;;;;16.90;60.10;;;;;;5092962;28;20281;-71
2024/03/17 08:42:42;;;;;;;;;;;17.00;60.30;;;;;;5092521;28;19916;-69
2024/03/17 08:45:10;;;;;;;;;;;17.00;60.30;;;;;;5092528;28;19920;-70
2024/03/17 08:47:35;;;;;;;;;;;17.00;60.00;;;;;;5092453;28;19912;-71
2024/03/17 08:50:03;;;;;;;;;;;17.00;60.50;;;;;;5092395;28;19919;-71
2024/03/17 08:52:33;;;;;;;;;;;17.00;60.40;;;;;;5092797;28;19913;-71
2024/03/17 08:54:59;;;;;;;;;;;17.10;60.00;;;;;;5092666;28;19920;-71
2024/03/17 08:57:25;;;;;;;;;;;17.00;60.50;;;;;;5092199;28;19912;-71
2024/03/17 08:59:53;;;;;;;;;;;17.00;60.30;;;;;;5092284;28;20006;-71
2024/03/17 09:02:19;;;;;;;;;;;17.20;59.80;;;;;;5075344;28;20394;-71
2024/03/17 09:04:45;;;;;;;;;;;17.00;60.20;;;;;;5092577;28;19935;-71
2024/03/17 09:07:10;;;;;;;;;;;17.00;60.40;;;;;;5092154;28;20390;-71
2024/03/17 09:09:36;;;;;;;;;;;17.10;60.50;;;;;;5092013;28;19966;-70
2024/03/17 09:12:03;;;;;;;;;;;17.30;60.40;;;;;;5092102;28;19923;-71
2024/03/17 09:14:29;;;;;;;;;;;17.10;60.00;;;;;;5092572;28;20302;-72
2024/03/17 09:16:55;;;;;;;;;;;17.10;60.30;;;;;;5075991;28;19912;-71
2024/03/17 09:19:21;;;;;;;;;;;17.10;60.20;;;;;;5093164;28;20298;-72
2024/03/17 09:21:47;;;;;;;;;;;17.10;60.30;;;;;;5091939;28;19955;-70
2024/03/17 09:24:13;;;;;;;;;;;17.10;60.40;;;;;;5092228;28;19913;-71
2024/03/17 09:26:41;;;;;;;;;;;17.10;60.50;;;;;;5091681;28;19935;-71
2024/03/17 09:29:07;;;;;;;;;;;17.10;57.90;;;;;;5091632;28;20327;-71
2024/03/17 09:31:35;;;;;;;;;;;17.20;60.30;;;;;;5091595;28;20014;-72
2024/03/17 09:34:04;;;;;;;;;;;17.10;60.30;;;;;;5091630;28;19970;-71
2024/03/17 09:36:31;;;;;;;;;;;17.20;60.40;;;;;;5091484;28;19935;-71
2024/03/17 09:38:56;;;;;;;;;;;17.20;60.50;;;;;;5091690;28;19913;-70
2024/03/17 09:41:26;;;;;;;;;;;17.20;60.00;;;;;;5091519;28;20326;-71
2024/03/17 09:43:56;;;;;;;;;;;17.30;60.70;;;;;;5091449;28;20298;-71
2024/03/17 09:46:22;;;;;;;;;;;17.20;56.90;;;;;;5090920;28;19913;-71
2024/03/17 09:48:48;;;;;;;;;;;17.20;60.80;;;;;;5091369;28;20236;-70
2024/03/17 09:51:21;;;;;;;;;;;17.20;60.40;;;;;;5091813;28;19919;-71
2024/03/17 09:53:47;;;;;;;;;;;17.20;57.00;;;;;;5091098;28;19920;-71
2024/03/17 09:56:15;;;;;;;;;;;17.20;60.20;;;;;;5091140;28;19973;-71
2024/03/17 09:58:40;;;;;;;;;;;17.30;60.70;;;;;;5091301;28;19943;-71
2024/03/17 10:01:06;;;;;;;;;;;;;;;;;;5091123;28;19954;-71
2024/03/17 10:03:45;;;;;;;;;;;17.30;57.60;;;;;;5110555;28;19927;-71
2024/03/17 10:06:15;;;;;;;;;;;17.20;57.20;;;;;;5112488;28;19907;-71
2024/03/17 10:09:09;;;;;;;;;;;17.30;60.80;;;;;;5094235;28;19912;-71
2024/03/17 10:11:36;;;;;;;;;;;17.20;57.30;;;;;;5103057;28;19911;-71
2024/03/17 10:14:05;;;;;;;;;;;17.20;60.60;;;;;;5094518;28;19920;-71
2024/03/17 10:16:32;;;;;;;;;;;17.30;60.90;;;;;;5094238;28;19935;-71
2024/03/17 10:19:11;;;;;;;;;;;17.20;60.90;;;;;;5094676;28;19965;-72
2024/03/17 10:21:38;;;;;;;;;;;17.30;57.50;;;;;;5112912;28;20292;-70
2024/03/17 10:24:09;;;;;;;;;;;17.30;60.60;;;;;;5113514;28;19926;-71
2024/03/17 10:26:41;;;;;;;;;;;17.30;57.60;;;;;;5112373;28;20273;-71
2024/03/17 10:29:19;;;;;;;;;;;17.40;57.60;;;;;;5112500;28;19916;-72
2024/03/17 10:31:45;;;;;;;;;;;17.10;57.40;;;;;;5112388;28;20032;-72
2024/03/17 10:34:15;;;;;;;;;;;17.30;61.00;;;;;;5094029;28;19919;-72
2024/03/17 10:36:40;;;;;;;;;;;17.30;60.80;;;;;;5094205;28;19911;-72
2024/03/17 10:39:20;;;;;;;;;;;17.30;61.00;;;;;;5112316;28;19920;-72
2024/03/17 10:41:46;;;;;;;;;;;17.40;60.90;;;;;;5112437;28;19927;-72
2024/03/17 10:44:11;;;;;;;;;;;17.30;61.30;;;;;;5093938;28;20281;-71
2024/03/17 10:46:37;;;;;;;;;;;17.40;60.90;;;;;;5094000;28;19912;-71
2024/03/17 10:49:03;;;;;;;;;;;17.40;61.10;;;;;;5093962;28;20427;-72
2024/03/17 10:51:29;;;;;;;;;;;17.40;60.90;;;;;;5094213;28;20010;-73
2024/03/17 10:53:56;;;;;;;;;;;17.40;61.20;;;;;;5111981;28;19920;-72
2024/03/17 10:56:22;;;;;;;;;;;17.40;60.80;;;;;;5094213;28;19916;-69
2024/03/17 10:58:52;;;;;;;;;;;17.40;61.30;;;;;;5113883;28;19920;-72
2024/03/17 11:01:19;;;;;;;;;;;17.60;60.70;;;;;;5116137;28;19955;-72
2024/03/17 11:03:46;;;;;;;;;;;17.40;61.20;;;;;;5097901;28;19949;-72
2024/03/17 11:06:12;;;;;;;;;;;17.40;60.90;;;;;;5098092;28;19916;-72
2024/03/17 11:08:38;;;;;;;;;;;17.40;60.80;;;;;;5097690;28;19919;-72
2024/03/17 11:11:04;;;;;;;;;;;17.50;61.50;;;;;;5097707;28;19911;-72
2024/03/17 11:13:30;;;;;;;;;;;17.40;61.10;;;;;;5097563;28;20026;-71
2024/03/17 11:16:04;;;;;;;;;;;17.50;60.80;;;;;;5116091;28;20286;-72
2024/03/17 11:18:37;;;;;;;;;;;17.50;61.40;;;;;;5105452;28;20242;-72
2024/03/17 11:21:22;;;;;;;;;;;17.60;58.10;;;;;;5097399;28;19924;-71
2024/03/17 11:23:58;;;;;;;;;;;17.50;61.30;;;;;;5115805;28;19908;-72
2024/03/17 11:26:33;;;;;;;;;;;17.50;58.10;;;;;;5115651;28;20291;-72
2024/03/17 11:29:00;;;;;;;;;;;17.50;58.00;;;;;;5080492;28;19919;-72
2024/03/17 11:31:42;;;;;;;;;;;17.50;61.70;;;;;;5097523;28;19912;-71
2024/03/17 11:34:27;;;;;;;;;;;17.60;58.20;;;;;;5115499;28;20350;-72
2024/03/17 11:36:53;;;;;;;;;;;17.60;58.20;;;;;;5115510;28;20367;-72
2024/03/17 11:39:27;;;;;;;;;;;17.60;61.40;;;;;;5115431;28;19919;-72
2024/03/17 11:41:53;;;;;;;;;;;17.50;61.40;;;;;;5098255;28;19916;-72
2024/03/17 11:44:23;;;;;;;;;;;17.50;61.50;;;;;;5097480;28;19990;-72
2024/03/17 11:46:55;;;;;;;;;;;17.50;58.10;;;;;;5096890;28;19907;-68
2024/03/17 11:49:21;;;;;;;;;;;17.60;58.20;;;;;;5115313;28;19908;-72
2024/03/17 11:51:48;;;;;;;;;;;17.60;61.40;;;;;;5115196;28;19922;-72
2024/03/17 11:54:18;;;;;;;;;;;17.60;61.70;;;;;;5115257;28;19962;-72
2024/03/17 11:56:51;;;;;;;;;;;17.60;61.30;;;;;;5122087;28;19908;-71
2024/03/17 11:59:17;;;;;;;;;;;17.60;58.20;;;;;;5115229;28;20342;-72
2024/03/17 12:01:49;;;;;;;;;;;17.80;60.80;;;;;;5114916;28;20009;-72
2024/03/17 12:04:16;;;;;;;;;;;17.70;58.10;;;;;;5115095;28;19912;-72
2024/03/17 12:06:58;;;;;;;;;;;17.70;61.10;;;;;;5114982;28;19916;-72
2024/03/17 12:09:29;;;;;;;;;;;17.80;57.70;;;;;;5114454;28;19915;-72
2024/03/17 12:12:00;;;;;;;;;;;18.00;57.70;;;;;;5114807;28;19994;-70
2024/03/17 12:14:26;;;;;;;;;;;18.00;57.40;;;;;;5114904;28;19916;-71
2024/03/17 12:16:55;;;;;;;;;;;18.10;60.60;;;;;;5114752;28;20412;-71
2024/03/17 12:19:22;;;;;;;;;;;18.10;57.20;;;;;;5114571;28;19958;-71
2024/03/17 12:21:59;;;;;;;;;;;18.10;60.70;;;;;;5114612;28;19914;-72
2024/03/17 12:24:29;;;;;;;;;;;18.10;60.30;;;;;;5121430;28;19915;-70
2024/03/17 12:26:56;;;;;;;;;;;18.10;57.40;;;;;;5114590;28;20400;-71
2024/03/17 12:29:27;;;;;;;;;;;18.20;60.80;;;;;;5114496;28;19952;-71
2024/03/17 12:31:53;;;;;;;;;;;18.10;60.80;;;;;;5121412;28;19912;-71
2024/03/17 12:34:19;;;;;;;;;;;18.10;61.10;;;;;;5114498;28;19922;-72
2024/03/17 12:36:45;;;;;;;;;;;18.10;61.00;;;;;;5114240;28;19915;-71
2024/03/17 12:39:18;;;;;;;;;;;18.10;61.00;;;;;;5114560;28;19912;-70
2024/03/17 12:41:44;;;;;;;;;;;18.10;61.00;;;;;;5114375;28;20022;-71
2024/03/17 12:44:22;;;;;;;;;;;18.80;61.60;;;;;;5114429;28;19973;-70
2024/03/17 12:46:47;;;;;;;;;;;18.10;57.90;;;;;;5114446;28;19907;-71
2024/03/17 12:49:13;;;;;;;;;;;18.20;61.40;;;;;;5114101;28;19907;-72
2024/03/17 12:51:40;;;;;;;;;;;18.20;61.20;;;;;;5114201;28;19908;-71
2024/03/17 12:54:12;;;;;;;;;;;18.30;61.80;;;;;;5114013;28;20387;-71
2024/03/17 13:02:09;;;;;;;;;;;18.40;61.10;;;;;;5117744;28;19926;-72
2024/03/17 13:04:37;;;;;;;;;;;18.40;61.30;;;;;;5113869;28;19907;-71
2024/03/17 13:07:10;;;;;;;;;;;18.40;61.20;;;;;;5113780;28;19958;-71
2024/03/17 13:09:35;;;;;;;;;;;18.50;58.00;;;;;;5113803;28;19915;-72
2024/03/17 13:12:01;;;;;;;;;;;18.60;61.00;;;;;;5113686;28;20278;-72
2024/03/17 13:14:26;;;;;;;;;;;18.30;60.50;;;;;;5113505;28;20077;-71
2024/03/17 13:16:52;;;;;;;;;;;18.70;60.40;;;;;;5113552;28;19912;-72
2024/03/17 13:19:17;;;;;;;;;;;18.70;60.30;;;;;;5113541;28;19915;-71
2024/03/17 13:21:43;;;;;;;;;;;18.70;60.50;;;;;;5112761;28;19908;-72
2024/03/17 13:24:08;;;;;;;;;;;18.70;60.60;;;;;;5113390;28;20262;-72
2024/03/17 13:26:34;;;;;;;;;;;18.80;60.30;;;;;;5113495;28;19987;-72
2024/03/17 13:28:59;;;;;;;;;;;18.80;60.10;;;;;;5113300;28;19938;-72
2024/03/17 13:31:25;;;;;;;;;;;18.80;60.70;;;;;;5113347;28;19915;-71
2024/03/17 13:33:50;;;;;;;;;;;18.80;60.60;;;;;;5113210;28;20403;-72
2024/03/17 13:36:16;;;;;;;;;;;18.80;61.70;;;;;;5113099;28;20300;-71
2024/03/17 13:38:42;;;;;;;;;;;18.70;61.00;;;;;;5113409;28;19912;-71
2024/03/17 13:41:08;;;;;;;;;;;18.70;60.80;;;;;;5113084;28;19908;-72
2024/03/17 13:43:34;;;;;;;;;;;18.80;60.60;;;;;;5112955;28;20016;-73
2024/03/17 13:45:59;;;;;;;;;;;18.70;61.40;;;;;;5113057;28;20410;-72
2024/03/17 13:48:25;;;;;;;;;;;18.40;61.10;;;;;;5112898;28;19907;-71
2024/03/17 13:50:50;;;;;;;;;;;18.70;61.30;;;;;;5112895;28;19908;-72
2024/03/17 13:53:16;;;;;;;;;;;18.70;61.70;;;;;;5112743;28;19908;-71
2024/03/17 13:55:41;;;;;;;;;;;18.70;61.50;;;;;;5112834;28;19968;-71
2024/03/17 13:58:07;;;;;;;;;;;18.70;61.70;;;;;;5112763;28;19908;-71
2024/03/17 14:00:37;;;;;;;;;;;18.60;61.80;;;;;;5112716;28;20285;-71
2024/03/17 14:03:03;;;;;;;;;;;18.70;61.20;;;;;;5091380;28;20386;-71
2024/03/17 14:05:29;;;;;;;;;;;18.70;61.60;;;;;;5091143;28;20020;-72
2024/03/17 14:07:55;;;;;;;;;;;18.70;62.00;;;;;;5092232;28;19908;-71
2024/03/17 14:10:21;;;;;;;;;;;18.80;62.30;;;;;;5090785;28;19908;-71
2024/03/17 14:12:47;;;;;;;;;;;18.60;62.00;;;;;;5092216;28;19908;-71
2024/03/17 14:15:13;;;;;;;;;;;18.60;62.00;;;;;;5092351;28;19923;-71
2024/03/17 14:17:43;;;;;;;;;;;18.60;62.10;;;;;;5092190;28;19912;-71
2024/03/17 14:20:09;;;;;;;;;;;18.60;58.90;;;;;;5091951;28;19977;-71
2024/03/17 14:22:41;;;;;;;;;;;18.60;61.80;;;;;;5092346;28;19912;-71
2024/03/17 14:25:12;;;;;;;;;;;18.60;59.20;;;;;;5092029;28;20243;-71
2024/03/17 14:27:38;;;;;;;;;;;18.70;62.30;;;;;;5092011;28;20491;-71